createdAt,value
2022-11-26T00:01:23.342Z,98368.38
2022-11-26T00:03:53.394Z,98369.78
2022-11-26T00:06:41.126Z,98368.04
2022-11-26T00:09:16.182Z,98371.76
2022-11-26T00:11:44.135Z,98367.36
2022-11-26T00:14:16.293Z,98369.45
2022-11-26T00:16:45.104Z,98369.07
2022-11-26T00:19:13.186Z,98373.52
2022-11-26T00:21:42.376Z,98373.72
2022-11-26T00:24:26.805Z,98374.48
2022-11-26T00:26:56.970Z,98375.68
2022-11-26T00:29:24.976Z,98378.09
2022-11-26T00:31:52.995Z,98376.28
2022-11-26T00:34:20.921Z,98382.24
2022-11-26T00:36:49.069Z,98380.89
2022-11-26T00:39:21.773Z,98386.98
2022-11-26T00:41:52.297Z,98389.27
2022-11-26T00:44:22.911Z,98392.16
2022-11-26T00:46:51.496Z,98394.36
2022-11-26T00:49:20.882Z,98396.10
2022-11-26T00:51:49.286Z,98399.77
2022-11-26T00:54:18.975Z,98401.02
2022-11-26T00:56:48.523Z,98405.51
2022-11-26T00:59:20.140Z,98403.48
2022-11-26T01:01:49.625Z,98407.70
2022-11-26T01:04:17.638Z,98414.40
2022-11-26T01:06:46.468Z,98413.80
2022-11-26T01:09:20.982Z,98416.45
2022-11-26T01:11:53.509Z,98420.92
2022-11-26T01:14:22.945Z,98421.73
2022-11-26T01:16:53.024Z,98424.32
2022-11-26T01:19:21.113Z,98424.55
2022-11-26T01:21:49.267Z,98422.23
2022-11-26T01:24:17.164Z,98420.20
2022-11-26T01:26:45.110Z,98419.59
2022-11-26T01:29:20.035Z,98421.23
2022-11-26T01:31:48.018Z,98425.05
2022-11-26T01:34:15.967Z,98429.70
2022-11-26T01:36:44.572Z,98434.41
2022-11-26T01:39:21.380Z,98437.84
2022-11-26T01:42:02.602Z,98439.08
2022-11-26T01:44:33.150Z,98435.66
2022-11-26T01:47:02.335Z,98438.64
2022-11-26T01:49:33.411Z,98438.16
2022-11-26T01:52:07.477Z,98437.48
2022-11-26T01:54:38.352Z,98433.75
2022-11-26T01:57:21.069Z,98437.45
2022-11-26T01:59:53.035Z,98440.45
2022-11-26T02:02:26.434Z,98437.02
2022-11-26T02:05:27.866Z,98440.27
2022-11-26T02:07:57.482Z,98441.09
2022-11-26T02:10:25.586Z,98443.44
2022-11-26T02:12:53.628Z,98444.64
2022-11-26T02:15:26.554Z,98443.86
2022-11-26T02:18:09.290Z,98443.55
2022-11-26T02:20:56.023Z,98442.45
2022-11-26T02:23:34.626Z,98441.44
2022-11-26T02:26:21.187Z,98441.65
2022-11-26T02:29:13.567Z,98438.05
2022-11-26T02:32:08.508Z,98435.89
2022-11-26T02:34:53.234Z,98442.04
2022-11-26T02:37:47.572Z,98442.05
2022-11-26T02:40:15.601Z,98442.42
2022-11-26T02:42:43.517Z,98441.82
2022-11-26T02:45:14.306Z,98442.27
2022-11-26T02:47:46.053Z,98440.91
2022-11-26T02:50:20.566Z,98441.30
2022-11-26T02:52:49.378Z,98444.15
2022-11-26T02:55:22.347Z,98443.59
2022-11-26T02:57:52.402Z,98442.96
2022-11-26T03:00:21.256Z,98444.12
2022-11-26T03:03:04.553Z,98447.81
2022-11-26T03:05:36.054Z,98442.81
2022-11-26T03:08:07.052Z,98444.77
2022-11-26T03:10:34.973Z,98446.13
2022-11-26T03:13:02.948Z,98446.28
2022-11-26T03:15:31.074Z,98448.63
2022-11-26T03:17:58.965Z,98449.21
2022-11-26T03:20:26.988Z,98454.09
2022-11-26T03:22:54.896Z,98453.11
2022-11-26T03:25:22.829Z,98453.58
2022-11-26T03:27:50.709Z,98452.67
2022-11-26T03:30:18.628Z,98454.17
2022-11-26T03:32:46.524Z,98458.39
2022-11-26T03:35:14.449Z,98461.50
2022-11-26T03:37:42.313Z,98459.34
2022-11-26T03:40:10.797Z,98462.29
2022-11-26T03:42:38.801Z,98461.54
2022-11-26T03:45:07.058Z,98461.50
2022-11-26T03:47:34.958Z,98462.77
2022-11-26T03:50:03.538Z,98461.00
2022-11-26T03:52:31.663Z,98464.21
2022-11-26T03:54:59.725Z,98463.63
2022-11-26T03:57:27.649Z,98473.96
2022-11-26T03:59:55.529Z,98472.92
2022-11-26T04:02:23.500Z,98471.86
2022-11-26T04:04:51.540Z,98471.78
2022-11-26T04:07:19.601Z,98476.97
2022-11-26T04:09:47.608Z,98478.35
2022-11-26T04:12:15.585Z,98478.77
2022-11-26T04:14:43.513Z,98477.78
2022-11-26T04:17:12.122Z,98479.02
2022-11-26T04:19:40.021Z,98485.86
2022-11-26T04:22:07.926Z,98488.04
2022-11-26T04:24:36.084Z,98492.61
2022-11-26T04:27:04.265Z,98496.20
2022-11-26T04:29:32.344Z,98500.02
2022-11-26T04:32:00.307Z,98503.55
2022-11-26T04:34:28.318Z,98503.86
2022-11-26T04:36:56.450Z,98507.23
2022-11-26T04:39:24.342Z,98507.23
2022-11-26T04:41:52.321Z,98508.88
2022-11-26T04:44:20.229Z,98512.46
2022-11-26T04:46:48.117Z,98516.61
2022-11-26T04:49:15.997Z,98519.77
2022-11-26T04:51:43.883Z,98526.86
2022-11-26T04:54:13.320Z,98525.84
2022-11-26T04:56:41.480Z,98531.05
2022-11-26T04:59:09.381Z,98531.89
2022-11-26T05:01:37.343Z,98531.24
2022-11-26T05:04:05.344Z,98532.54
2022-11-26T05:06:33.757Z,98534.56
2022-11-26T05:09:01.698Z,98531.90
2022-11-26T05:11:29.615Z,98536.63
2022-11-26T05:13:57.579Z,98535.95
2022-11-26T05:16:25.507Z,98537.92
2022-11-26T05:18:53.440Z,98536.79
2022-11-26T05:21:21.335Z,98536.59
2022-11-26T05:23:49.328Z,98539.29
2022-11-26T05:26:17.301Z,98540.63
2022-11-26T05:28:45.245Z,98540.45
2022-11-26T05:31:13.303Z,98544.86
2022-11-26T05:33:41.289Z,98543.23
2022-11-26T05:36:09.283Z,98544.86
2022-11-26T05:38:37.199Z,98540.27
2022-11-26T05:41:05.102Z,98540.19
2022-11-26T05:43:33.145Z,98538.55
2022-11-26T05:46:08.808Z,98540.92
2022-11-26T05:48:36.991Z,98545.79
2022-11-26T05:51:05.060Z,98543.28
2022-11-26T05:53:32.946Z,98540.05
2022-11-26T05:56:00.957Z,98547.70
2022-11-26T05:58:28.894Z,98545.71
2022-11-26T06:00:56.791Z,98551.89
2022-11-26T06:03:24.871Z,98547.78
2022-11-26T06:05:52.834Z,98546.64
2022-11-26T06:08:20.724Z,98552.34
2022-11-26T06:10:48.665Z,98557.95
2022-11-26T06:13:17.152Z,98566.55
2022-11-26T06:15:45.628Z,98570.27
2022-11-26T06:18:13.680Z,98577.47
2022-11-26T06:20:41.635Z,98581.57
2022-11-26T06:23:09.742Z,98582.07
2022-11-26T06:25:40.708Z,98577.95
2022-11-26T06:28:08.929Z,98588.27
2022-11-26T06:30:36.834Z,98590.45
2022-11-26T06:33:04.758Z,98596.34
2022-11-26T06:35:32.862Z,98599.65
2022-11-26T06:38:00.777Z,98606.98
2022-11-26T06:40:28.780Z,98608.02
2022-11-26T06:42:56.754Z,98607.96
2022-11-26T06:45:24.994Z,98609.30
2022-11-26T06:47:53.105Z,98609.06
2022-11-26T06:50:23.656Z,98611.42
2022-11-26T06:52:54.994Z,98609.60
2022-11-26T06:55:22.973Z,98612.73
2022-11-26T06:57:52.084Z,98615.20
2022-11-26T07:00:20.255Z,98616.12
2022-11-26T07:02:48.817Z,98618.93
2022-11-26T07:05:16.906Z,98620.65
2022-11-26T07:07:44.813Z,98626.74
2022-11-26T07:10:12.745Z,98626.14
2022-11-26T07:12:40.626Z,98627.92
2022-11-26T07:15:09.217Z,98626.55
2022-11-26T07:17:37.096Z,98628.25
2022-11-26T07:20:05.869Z,98629.34
2022-11-26T07:22:35.280Z,98632.31
2022-11-26T07:25:06.042Z,98634.29
2022-11-26T07:27:36.156Z,98640.76
2022-11-26T07:30:06.029Z,98642.02
2022-11-26T07:32:34.028Z,98640.80
2022-11-26T07:35:05.468Z,98647.95
2022-11-26T07:37:33.929Z,98648.77
2022-11-26T07:40:02.035Z,98655.44
2022-11-26T07:42:32.280Z,98655.77
2022-11-26T07:45:00.278Z,98655.33
2022-11-26T07:47:28.179Z,98656.42
2022-11-26T07:49:56.048Z,98659.70
2022-11-26T07:52:23.897Z,98661.00
2022-11-26T07:54:51.819Z,98657.94
2022-11-26T07:57:22.060Z,98655.73
2022-11-26T07:59:49.984Z,98662.70
2022-11-26T08:02:17.950Z,98667.13
2022-11-26T08:04:46.019Z,98668.40
2022-11-26T08:07:20.109Z,98676.02
2022-11-26T08:09:51.072Z,98677.86
2022-11-26T08:12:19.101Z,98680.25
2022-11-26T08:14:47.052Z,98681.34
2022-11-26T08:17:14.936Z,98683.40
2022-11-26T08:19:42.857Z,98686.33
2022-11-26T08:22:10.758Z,98690.90
2022-11-26T08:24:40.223Z,98693.19
2022-11-26T08:27:08.399Z,98695.63
2022-11-26T08:29:37.175Z,98698.77
2022-11-26T08:32:05.241Z,98695.83
2022-11-26T08:34:33.978Z,98695.59
2022-11-26T08:37:02.259Z,98694.52
2022-11-26T08:39:30.133Z,98696.77
2022-11-26T08:41:58.256Z,98696.60
2022-11-26T08:44:26.133Z,98699.21
2022-11-26T08:46:54.074Z,98699.11
2022-11-26T08:49:21.997Z,98698.95
2022-11-26T08:51:49.906Z,98698.11
2022-11-26T08:54:17.809Z,98699.51
2022-11-26T08:56:45.762Z,98699.29
2022-11-26T08:59:13.768Z,98702.98
2022-11-26T09:01:42.172Z,98705.90
2022-11-26T09:04:10.219Z,98712.18
2022-11-26T09:06:38.202Z,98714.63
2022-11-26T09:09:13.106Z,98719.06
2022-11-26T09:11:52.150Z,98721.65
2022-11-26T09:14:24.929Z,98726.15
2022-11-26T09:16:54.901Z,98731.27
2022-11-26T09:19:24.118Z,98734.53
2022-11-26T09:21:52.251Z,98735.62
2022-11-26T09:24:21.395Z,98735.58
2022-11-26T09:26:49.944Z,98737.55
2022-11-26T09:29:20.308Z,98734.14
2022-11-26T09:32:21.183Z,98733.86
2022-11-26T09:34:37.994Z,98734.33
2022-11-26T09:37:06.733Z,98735.36
2022-11-26T09:39:34.764Z,98734.34
2022-11-26T09:42:07.548Z,98736.33
2022-11-26T09:44:40.337Z,98737.33
2022-11-26T09:47:14.477Z,98738.73
2022-11-26T09:50:04.414Z,98737.46
2022-11-26T09:52:50.396Z,98734.83
2022-11-26T09:55:31.381Z,98737.32
2022-11-26T09:57:59.292Z,98734.80
2022-11-26T10:00:39.269Z,98733.70
2022-11-26T10:03:21.659Z,98733.77
2022-11-26T10:06:25.848Z,98738.00
2022-11-26T10:09:13.960Z,98740.11
2022-11-26T10:12:25.861Z,98732.94
2022-11-26T10:15:04.798Z,98735.23
2022-11-26T10:17:47.898Z,98734.77
2022-11-26T10:20:31.020Z,98733.81
2022-11-26T10:23:11.228Z,98733.80
2022-11-26T10:25:45.666Z,98736.56
2022-11-26T10:28:21.284Z,98736.89
2022-11-26T10:30:57.135Z,98732.98
2022-11-26T10:33:37.453Z,98732.21
2022-11-26T10:36:09.419Z,98733.33
2022-11-26T10:38:37.328Z,98737.02
2022-11-26T10:41:05.339Z,98732.64
2022-11-26T10:43:33.287Z,98726.91
2022-11-26T10:46:01.408Z,98729.20
2022-11-26T10:48:34.110Z,98726.98
2022-11-26T10:51:06.726Z,98729.20
2022-11-26T10:53:53.701Z,98726.83
2022-11-26T10:56:40.980Z,98724.35
2022-11-26T10:59:30.444Z,98726.05
2022-11-26T11:02:05.878Z,98724.38
2022-11-26T11:04:40.732Z,98723.30
2022-11-26T11:07:30.166Z,98726.39
2022-11-26T11:10:05.172Z,98724.63
2022-11-26T11:12:33.246Z,98722.67
2022-11-26T11:15:21.073Z,98721.09
2022-11-26T11:18:01.574Z,98721.29
2022-11-26T11:20:33.138Z,98725.76
2022-11-26T11:23:10.082Z,98722.99
2022-11-26T11:25:42.124Z,98724.63
2022-11-26T11:28:21.681Z,98727.16
2022-11-26T11:31:05.123Z,98728.12
2022-11-26T11:33:35.527Z,98728.42
2022-11-26T11:36:26.585Z,98733.11
2022-11-26T11:38:54.502Z,98734.56
2022-11-26T11:41:48.955Z,98733.70
2022-11-26T11:44:23.883Z,98733.58
2022-11-26T11:47:20.668Z,98735.09
2022-11-26T11:49:51.566Z,98735.42
2022-11-26T11:52:50.732Z,98736.05
2022-11-26T11:55:40.444Z,98736.91
2022-11-26T11:58:33.299Z,98734.88
2022-11-26T12:01:20.802Z,98731.95
2022-11-26T12:04:19.632Z,98732.74
2022-11-26T12:07:16.555Z,98734.38
2022-11-26T12:10:20.880Z,98736.25
2022-11-26T12:12:56.430Z,98734.35
2022-11-26T12:15:32.298Z,98734.27
2022-11-26T12:18:41.755Z,98729.08
2022-11-26T12:21:13.196Z,98730.23
2022-11-26T12:23:58.659Z,98734.77
2022-11-26T12:26:31.187Z,98732.94
2022-11-26T12:29:23.906Z,98734.11
2022-11-26T12:31:54.006Z,98734.08
2022-11-26T12:34:30.832Z,98733.48
2022-11-26T12:37:27.734Z,98732.81
2022-11-26T12:40:34.695Z,98733.13
2022-11-26T12:43:07.602Z,98733.41
2022-11-26T12:46:01.325Z,98734.77
2022-11-26T12:48:58.336Z,98735.91
2022-11-26T12:51:36.264Z,98738.75
2022-11-26T12:54:13.409Z,98740.09
2022-11-26T12:57:06.347Z,98740.52
2022-11-26T12:59:48.855Z,98746.61
2022-11-26T13:02:36.857Z,98743.40
2022-11-26T13:05:05.857Z,98745.35
2022-11-26T13:07:52.230Z,98751.07
2022-11-26T13:10:59.111Z,98748.58
2022-11-26T13:13:48.181Z,98748.63
2022-11-26T13:16:38.034Z,98751.19
2022-11-26T13:19:41.096Z,98749.92
2022-11-26T13:22:31.033Z,98748.98
2022-11-26T13:25:08.969Z,98752.85
2022-11-26T13:28:01.817Z,98752.58
2022-11-26T13:30:58.315Z,98759.63
2022-11-26T13:33:35.645Z,98757.20
2022-11-26T13:36:06.674Z,98760.33
2022-11-26T13:38:54.264Z,98758.05
2022-11-26T13:41:38.282Z,98759.48
2022-11-26T13:44:42.304Z,98760.07
2022-11-26T13:47:18.971Z,98762.48
2022-11-26T13:49:50.590Z,98766.13
2022-11-26T13:52:29.470Z,98764.64
2022-11-26T13:55:03.991Z,98769.73
2022-11-26T13:57:47.545Z,98770.77
2022-11-26T14:00:28.834Z,98772.16
2022-11-26T14:02:57.369Z,98772.51
2022-11-26T14:05:50.983Z,98773.96
2022-11-26T14:08:34.026Z,98774.20
2022-11-26T14:11:03.319Z,98773.37
2022-11-26T14:13:31.675Z,98771.16
2022-11-26T14:16:12.320Z,98773.17
2022-11-26T14:18:50.520Z,98768.55
2022-11-26T14:21:58.394Z,98770.25
2022-11-26T14:24:51.123Z,98769.13
2022-11-26T14:27:20.529Z,98772.96
2022-11-26T14:30:08.753Z,98770.96
2022-11-26T14:32:58.014Z,98772.45
2022-11-26T14:35:34.401Z,98776.20
2022-11-26T14:38:05.663Z,98780.35
2022-11-26T14:40:38.538Z,98783.66
2022-11-26T14:43:22.837Z,98786.23
2022-11-26T14:46:12.508Z,98788.84
2022-11-26T14:48:49.509Z,98793.41
2022-11-26T14:51:26.343Z,98797.02
2022-11-26T14:53:56.149Z,98793.27
2022-11-26T14:56:27.760Z,98796.87
2022-11-26T14:59:01.357Z,98799.55
2022-11-26T15:01:29.734Z,98801.08
2022-11-26T15:04:02.143Z,98804.27
2022-11-26T15:06:38.500Z,98808.18
2022-11-26T15:09:11.498Z,98811.05
2022-11-26T15:11:56.054Z,98812.21
2022-11-26T15:14:38.883Z,98812.73
2022-11-26T15:17:11.687Z,98813.40
2022-11-26T15:19:41.471Z,98815.41
2022-11-26T15:22:34.479Z,98813.96
2022-11-26T15:25:02.537Z,98815.27
2022-11-26T15:27:37.872Z,98801.85
2022-11-26T15:30:39.026Z,98813.30
2022-11-26T15:33:12.975Z,98809.65
2022-11-26T15:35:41.709Z,98812.83
2022-11-26T15:38:15.716Z,98816.21
2022-11-26T15:40:56.321Z,98816.86
2022-11-26T15:43:32.320Z,98820.00
2022-11-26T15:46:25.819Z,98819.92
2022-11-26T15:49:01.075Z,98817.65
2022-11-26T15:52:09.533Z,98820.70
2022-11-26T15:55:11.260Z,98818.92
2022-11-26T15:57:40.570Z,98819.54
2022-11-26T16:00:22.045Z,98818.23
2022-11-26T16:02:51.664Z,98824.98
2022-11-26T16:05:38.749Z,98828.52
2022-11-26T16:08:25.074Z,98833.48
2022-11-26T16:11:07.468Z,98830.23
2022-11-26T16:13:37.750Z,98838.11
2022-11-26T16:16:32.102Z,98838.47
2022-11-26T16:19:04.329Z,98838.23
2022-11-26T16:21:37.183Z,98843.66
2022-11-26T16:24:25.795Z,98846.81
2022-11-26T16:27:02.407Z,98849.18
2022-11-26T16:29:38.001Z,98849.89
2022-11-26T16:32:06.524Z,98849.81
2022-11-26T16:34:34.424Z,98852.69
2022-11-26T16:37:18.153Z,98856.80
2022-11-26T16:39:46.838Z,98858.83
2022-11-26T16:42:17.254Z,98862.41
2022-11-26T16:44:45.307Z,98864.47
2022-11-26T16:47:17.186Z,98869.46
2022-11-26T16:49:45.080Z,98869.61
2022-11-26T16:52:16.334Z,98875.77
2022-11-26T16:54:44.253Z,98876.30
2022-11-26T16:57:38.678Z,98884.14
2022-11-26T17:00:15.050Z,98885.55
2022-11-26T17:02:43.167Z,98890.73
2022-11-26T17:05:14.360Z,98891.52
2022-11-26T17:07:47.705Z,98895.70
2022-11-26T17:10:30.851Z,98895.35
2022-11-26T17:12:58.720Z,98896.99
2022-11-26T17:15:29.642Z,98891.22
2022-11-26T17:18:03.230Z,98896.61
2022-11-26T17:20:31.200Z,98900.86
2022-11-26T17:23:00.694Z,98903.98
2022-11-26T17:25:28.967Z,98908.95
2022-11-26T17:27:56.912Z,98909.73
2022-11-26T17:30:25.935Z,98912.30
2022-11-26T17:32:53.916Z,98911.90
2022-11-26T17:35:23.234Z,98916.55
2022-11-26T17:37:52.597Z,98919.10
2022-11-26T17:40:22.395Z,98922.06
2022-11-26T17:42:54.759Z,98924.04
2022-11-26T17:45:23.248Z,98920.36
2022-11-26T17:47:51.237Z,98921.38
2022-11-26T17:50:24.621Z,98924.20
2022-11-26T17:52:55.812Z,98923.95
2022-11-26T17:55:26.010Z,98926.83
2022-11-26T17:57:55.442Z,98928.14
2022-11-26T18:00:29.710Z,98928.67
2022-11-26T18:02:58.423Z,98925.21
2022-11-26T18:05:26.472Z,98928.51
2022-11-26T18:07:54.771Z,98929.77
2022-11-26T18:10:25.711Z,98931.11
2022-11-26T18:12:55.352Z,98933.73
2022-11-26T18:15:25.492Z,98936.16
2022-11-26T18:17:59.018Z,98933.20
2022-11-26T18:20:30.523Z,98928.50
2022-11-26T18:23:00.655Z,98932.99
2022-11-26T18:25:33.442Z,98932.23
2022-11-26T18:28:01.322Z,98932.32
2022-11-26T18:30:30.675Z,98937.20
2022-11-26T18:33:01.863Z,98938.55
2022-11-26T18:35:29.754Z,98941.43
2022-11-26T18:38:00.215Z,98948.64
2022-11-26T18:40:28.279Z,98952.83
2022-11-26T18:42:56.236Z,98954.66
2022-11-26T18:45:25.553Z,98963.35
2022-11-26T18:47:53.491Z,98969.80
2022-11-26T18:50:21.533Z,98971.31
2022-11-26T18:52:52.633Z,98974.09
2022-11-26T18:55:20.583Z,98976.17
2022-11-26T18:57:51.454Z,98982.13
2022-11-26T19:00:19.675Z,98988.09
2022-11-26T19:02:49.830Z,98982.52
2022-11-26T19:05:18.355Z,98982.85
2022-11-26T19:07:46.289Z,98985.24
2022-11-26T19:10:16.875Z,98989.13
2022-11-26T19:12:44.739Z,98987.63
2022-11-26T19:15:12.634Z,98993.05
2022-11-26T19:17:40.620Z,98998.58
2022-11-26T19:20:08.752Z,99002.19
2022-11-26T19:22:37.060Z,98999.73
2022-11-26T19:25:05.373Z,99008.09
2022-11-26T19:27:34.032Z,99005.54
2022-11-26T19:30:02.033Z,99007.22
2022-11-26T19:32:29.992Z,99006.96
2022-11-26T19:35:02.630Z,99012.77
2022-11-26T19:37:33.391Z,99014.91
2022-11-26T19:40:01.589Z,99022.84
2022-11-26T19:42:30.174Z,99022.25
2022-11-26T19:44:58.146Z,99019.46
2022-11-26T19:47:26.038Z,99017.27
2022-11-26T19:49:53.991Z,99020.48
2022-11-26T19:52:21.918Z,99027.15
2022-11-26T19:54:49.839Z,99028.98
2022-11-26T19:57:18.306Z,99031.00
2022-11-26T19:59:46.218Z,99034.48
2022-11-26T20:02:14.224Z,99040.45
2022-11-26T20:04:42.156Z,99041.80
2022-11-26T20:07:10.117Z,99042.52
2022-11-26T20:09:38.465Z,99040.09
2022-11-26T20:12:06.708Z,99047.62
2022-11-26T20:14:34.661Z,99045.66
2022-11-26T20:17:03.124Z,99048.55
2022-11-26T20:19:31.069Z,99047.52
2022-11-26T20:22:01.829Z,99046.69
2022-11-26T20:24:29.781Z,99048.89
2022-11-26T20:26:58.303Z,99048.72
2022-11-26T20:29:26.232Z,99055.48
2022-11-26T20:31:54.350Z,99052.52
2022-11-26T20:34:26.311Z,99053.70
2022-11-26T20:36:54.402Z,99056.10
2022-11-26T20:39:23.704Z,99057.44
2022-11-26T20:41:51.966Z,99063.42
2022-11-26T20:44:19.950Z,99065.55
2022-11-26T20:46:47.926Z,99066.88
2022-11-26T20:49:16.237Z,99063.52
2022-11-26T20:51:44.279Z,99066.01
2022-11-26T20:54:12.376Z,99067.51
2022-11-26T20:56:40.593Z,99070.10
2022-11-26T20:59:09.678Z,99071.56
2022-11-26T21:01:38.502Z,99071.91
2022-11-26T21:04:07.024Z,99072.92
2022-11-26T21:06:35.722Z,99068.05
2022-11-26T21:09:06.340Z,99072.06
2022-11-26T21:11:35.150Z,99071.83
2022-11-26T21:14:03.988Z,99070.44
2022-11-26T21:16:33.302Z,99074.91
2022-11-26T21:19:01.864Z,99075.84
2022-11-26T21:21:29.958Z,99077.13
2022-11-26T21:23:58.283Z,99082.02
2022-11-26T21:26:26.842Z,99087.76
2022-11-26T21:28:57.277Z,99087.67
2022-11-26T21:31:26.863Z,99085.15
2022-11-26T21:33:57.875Z,99084.59
2022-11-26T21:36:26.720Z,99090.35
2022-11-26T21:38:54.810Z,99088.95
2022-11-26T21:41:23.487Z,99089.45
2022-11-26T21:43:52.017Z,99090.86
2022-11-26T21:46:21.483Z,99089.52
2022-11-26T21:48:49.486Z,99093.75
2022-11-26T21:51:17.945Z,99086.75
2022-11-26T21:53:46.791Z,99087.08
2022-11-26T21:56:20.274Z,99087.70
2022-11-26T21:58:49.506Z,99094.42
2022-11-26T22:01:23.214Z,99098.54
2022-11-26T22:03:53.614Z,99099.77
2022-11-26T22:06:23.584Z,99105.36
2022-11-26T22:08:51.893Z,99107.00
2022-11-26T22:11:23.307Z,99106.29
2022-11-26T22:13:52.189Z,99104.16
2022-11-26T22:16:22.394Z,99103.95
2022-11-26T22:18:51.600Z,99104.05
2022-11-26T22:21:22.802Z,99107.56
2022-11-26T22:23:53.426Z,99105.89
2022-11-26T22:26:22.354Z,99108.36
2022-11-26T22:28:51.025Z,99111.05
2022-11-26T22:31:21.975Z,99111.04
2022-11-26T22:33:53.904Z,99112.54
2022-11-26T22:36:22.068Z,99116.09
2022-11-26T22:38:50.510Z,99115.91
2022-11-26T22:41:18.848Z,99116.13
2022-11-26T22:43:46.852Z,99114.24
2022-11-26T22:46:17.563Z,99110.33
2022-11-26T22:49:05.060Z,99109.64
2022-11-26T22:51:35.003Z,99109.09
2022-11-26T22:54:07.040Z,99103.45
2022-11-26T22:56:37.941Z,99105.29
2022-11-26T22:59:07.884Z,99106.70
2022-11-26T23:01:37.391Z,99108.35
2022-11-26T23:04:07.920Z,99105.63
2022-11-26T23:06:36.736Z,99107.89
2022-11-26T23:09:07.813Z,99107.85
2022-11-26T23:11:40.771Z,99110.09
2022-11-26T23:14:09.677Z,99108.60
2022-11-26T23:16:40.375Z,99111.86
2022-11-26T23:19:09.361Z,99105.73
2022-11-26T23:21:43.590Z,99102.94
2022-11-26T23:24:11.588Z,99100.67
2022-11-26T23:26:40.826Z,99100.63
2022-11-26T23:29:10.274Z,99103.89
2022-11-26T23:31:41.499Z,99098.46
2022-11-26T23:34:10.389Z,99099.17
2022-11-26T23:36:39.122Z,99105.05
2022-11-26T23:39:10.729Z,99102.85
2022-11-26T23:41:38.648Z,99106.09
2022-11-26T23:44:06.656Z,99107.35
2022-11-26T23:46:35.569Z,99110.60
2022-11-26T23:49:04.212Z,99114.64
2022-11-26T23:51:33.221Z,99114.59
2022-11-26T23:54:01.273Z,99120.02
2022-11-26T23:56:32.058Z,99117.73
2022-11-26T23:59:03.953Z,99117.09
